<?xml version="1.0" encoding="UTF-8" standalone="no" ?>
<gpx xmlns="http://www.topografix.com/GPX/1/1" xmlns:xsi="http://www.w3.org/2001/XMLSchema-instance" xsi:schemaLocation="http://www.topografix.com/GPX/1/1 http://www.topografix.com/GPX/1/1/gpx.xsd" version="1.1" creator="VisuGPX - https://www.visugpx.com">
  <metadata>
    <name>Le roc de Peyre</name>
    <desc><![CDATA[Une petite boucle pour monter au roc de Peyre autrement qu'en y allant en voiture ...]]></desc>
  </metadata>
  <trk>
    <name><![CDATA[Piste0004A]]></name>
    <trkseg>
      <trkpt lat="44.64214" lon="3.28574">
        <ele>885</ele>
        <time>2009-02-26T13:40:19.000Z</time>
      </trkpt>
      <trkpt lat="44.64208" lon="3.28576">
        <ele>897</ele>
        <time>2009-02-26T13:40:24.000Z</time>
      </trkpt>
      <trkpt lat="44.64191" lon="3.28581">
        <ele>950</ele>
        <time>2009-02-26T13:40:37.000Z</time>
      </trkpt>
      <trkpt lat="44.64182" lon="3.28589">
        <ele>971</ele>
        <time>2009-02-26T13:40:45.000Z</time>
      </trkpt>
      <trkpt lat="44.64176" lon="3.28594">
        <ele>981</ele>
        <time>2009-02-26T13:40:50.000Z</time>
      </trkpt>
      <trkpt lat="44.6417" lon="3.28604">
        <ele>989</ele>
        <time>2009-02-26T13:40:58.000Z</time>
      </trkpt>
      <trkpt lat="44.64168" lon="3.28611">
        <ele>990</ele>
        <time>2009-02-26T13:41:04.000Z</time>
      </trkpt>
      <trkpt lat="44.64167" lon="3.28619">
        <ele>991</ele>
        <time>2009-02-26T13:41:11.000Z</time>
      </trkpt>
      <trkpt lat="44.64168" lon="3.28627">
        <ele>992</ele>
        <time>2009-02-26T13:41:19.000Z</time>
      </trkpt>
      <trkpt lat="44.6417" lon="3.28635">
        <ele>992</ele>
        <time>2009-02-26T13:41:25.000Z</time>
      </trkpt>
      <trkpt lat="44.64174" lon="3.28627">
        <ele>994</ele>
        <time>2009-02-26T13:41:36.000Z</time>
      </trkpt>
      <trkpt lat="44.64174" lon="3.28619">
        <ele>994</ele>
        <time>2009-02-26T13:41:42.000Z</time>
      </trkpt>
      <trkpt lat="44.64175" lon="3.28611">
        <ele>996</ele>
        <time>2009-02-26T13:41:49.000Z</time>
      </trkpt>
      <trkpt lat="44.6418" lon="3.28601">
        <ele>994</ele>
        <time>2009-02-26T13:42:01.000Z</time>
      </trkpt>
      <trkpt lat="44.64193" lon="3.28585">
        <ele>995</ele>
        <time>2009-02-26T13:42:24.000Z</time>
      </trkpt>
      <trkpt lat="44.64199" lon="3.28581">
        <ele>998</ele>
        <time>2009-02-26T13:42:40.000Z</time>
      </trkpt>
      <trkpt lat="44.64211" lon="3.2857">
        <ele>1004</ele>
        <time>2009-02-26T13:42:57.000Z</time>
      </trkpt>
      <trkpt lat="44.64217" lon="3.28561">
        <ele>1007</ele>
        <time>2009-02-26T13:43:08.000Z</time>
      </trkpt>
      <trkpt lat="44.64219" lon="3.2855">
        <ele>1007</ele>
        <time>2009-02-26T13:43:30.000Z</time>
      </trkpt>
      <trkpt lat="44.64222" lon="3.28542">
        <ele>1007</ele>
        <time>2009-02-26T13:43:36.000Z</time>
      </trkpt>
      <trkpt lat="44.64223" lon="3.28535">
        <ele>1008</ele>
        <time>2009-02-26T13:43:40.000Z</time>
      </trkpt>
      <trkpt lat="44.64221" lon="3.28521">
        <ele>1014</ele>
        <time>2009-02-26T13:43:48.000Z</time>
      </trkpt>
      <trkpt lat="44.64218" lon="3.28508">
        <ele>1013</ele>
        <time>2009-02-26T13:43:57.000Z</time>
      </trkpt>
      <trkpt lat="44.64216" lon="3.28496">
        <ele>1012</ele>
        <time>2009-02-26T13:44:07.000Z</time>
      </trkpt>
      <trkpt lat="44.64212" lon="3.28472">
        <ele>1009</ele>
        <time>2009-02-26T13:44:26.000Z</time>
      </trkpt>
      <trkpt lat="44.64202" lon="3.28462">
        <ele>1003</ele>
        <time>2009-02-26T13:44:39.000Z</time>
      </trkpt>
      <trkpt lat="44.64191" lon="3.28448">
        <ele>1001</ele>
        <time>2009-02-26T13:44:54.000Z</time>
      </trkpt>
      <trkpt lat="44.6418" lon="3.28432">
        <ele>1000</ele>
        <time>2009-02-26T13:45:09.000Z</time>
      </trkpt>
      <trkpt lat="44.64177" lon="3.28421">
        <ele>1001</ele>
        <time>2009-02-26T13:45:18.000Z</time>
      </trkpt>
      <trkpt lat="44.64173" lon="3.28405">
        <ele>1002</ele>
        <time>2009-02-26T13:45:31.000Z</time>
      </trkpt>
      <trkpt lat="44.64167" lon="3.284">
        <ele>1003</ele>
        <time>2009-02-26T13:45:43.000Z</time>
      </trkpt>
      <trkpt lat="44.64162" lon="3.28394">
        <ele>1002</ele>
        <time>2009-02-26T13:45:49.000Z</time>
      </trkpt>
      <trkpt lat="44.6416" lon="3.28386">
        <ele>1001</ele>
        <time>2009-02-26T13:45:55.000Z</time>
      </trkpt>
      <trkpt lat="44.64162" lon="3.2838">
        <ele>1001</ele>
        <time>2009-02-26T13:46:04.000Z</time>
      </trkpt>
      <trkpt lat="44.64168" lon="3.28382">
        <ele>1001</ele>
        <time>2009-02-26T13:46:18.000Z</time>
      </trkpt>
      <trkpt lat="44.64177" lon="3.28385">
        <ele>1000</ele>
        <time>2009-02-26T13:46:37.000Z</time>
      </trkpt>
      <trkpt lat="44.64183" lon="3.28386">
        <ele>1001</ele>
        <time>2009-02-26T13:46:46.000Z</time>
      </trkpt>
      <trkpt lat="44.64196" lon="3.28381">
        <ele>1006</ele>
        <time>2009-02-26T13:47:09.000Z</time>
      </trkpt>
      <trkpt lat="44.64206" lon="3.28381">
        <ele>1008</ele>
        <time>2009-02-26T13:47:22.000Z</time>
      </trkpt>
      <trkpt lat="44.6423" lon="3.28381">
        <ele>1013</ele>
        <time>2009-02-26T13:47:59.000Z</time>
      </trkpt>
      <trkpt lat="44.64239" lon="3.28382">
        <ele>1015</ele>
        <time>2009-02-26T13:48:15.000Z</time>
      </trkpt>
      <trkpt lat="44.64248" lon="3.28384">
        <ele>1016</ele>
        <time>2009-02-26T13:48:29.000Z</time>
      </trkpt>
      <trkpt lat="44.64257" lon="3.28388">
        <ele>1016</ele>
        <time>2009-02-26T13:48:45.000Z</time>
      </trkpt>
      <trkpt lat="44.64275" lon="3.284">
        <ele>1018</ele>
        <time>2009-02-26T13:49:43.000Z</time>
      </trkpt>
      <trkpt lat="44.64285" lon="3.284">
        <ele>1025</ele>
        <time>2009-02-26T13:52:20.000Z</time>
      </trkpt>
      <trkpt lat="44.6429" lon="3.284">
        <ele>1026</ele>
        <time>2009-02-26T13:52:30.000Z</time>
      </trkpt>
      <trkpt lat="44.64296" lon="3.28402">
        <ele>1027</ele>
        <time>2009-02-26T13:52:38.000Z</time>
      </trkpt>
      <trkpt lat="44.64302" lon="3.28402">
        <ele>1025</ele>
        <time>2009-02-26T13:52:48.000Z</time>
      </trkpt>
      <trkpt lat="44.64308" lon="3.28401">
        <ele>1026</ele>
        <time>2009-02-26T13:52:57.000Z</time>
      </trkpt>
      <trkpt lat="44.64316" lon="3.28396">
        <ele>1029</ele>
        <time>2009-02-26T13:53:15.000Z</time>
      </trkpt>
      <trkpt lat="44.64332" lon="3.28387">
        <ele>1031</ele>
        <time>2009-02-26T13:53:41.000Z</time>
      </trkpt>
      <trkpt lat="44.64338" lon="3.28384">
        <ele>1032</ele>
        <time>2009-02-26T13:53:49.000Z</time>
      </trkpt>
      <trkpt lat="44.64347" lon="3.28383">
        <ele>1034</ele>
        <time>2009-02-26T13:54:05.000Z</time>
      </trkpt>
      <trkpt lat="44.64351" lon="3.28378">
        <ele>1043</ele>
        <time>2009-02-26T13:54:35.000Z</time>
      </trkpt>
      <trkpt lat="44.64355" lon="3.28377">
        <ele>1038</ele>
        <time>2009-02-26T13:55:22.000Z</time>
      </trkpt>
      <trkpt lat="44.64361" lon="3.28381">
        <ele>1037</ele>
        <time>2009-02-26T13:55:33.000Z</time>
      </trkpt>
      <trkpt lat="44.64366" lon="3.28383">
        <ele>1039</ele>
        <time>2009-02-26T13:55:46.000Z</time>
      </trkpt>
      <trkpt lat="44.64382" lon="3.28385">
        <ele>1043</ele>
        <time>2009-02-26T13:56:15.000Z</time>
      </trkpt>
      <trkpt lat="44.64388" lon="3.28377">
        <ele>1040</ele>
        <time>2009-02-26T13:56:32.000Z</time>
      </trkpt>
      <trkpt lat="44.64393" lon="3.28374">
        <ele>1039</ele>
        <time>2009-02-26T13:56:42.000Z</time>
      </trkpt>
      <trkpt lat="44.644" lon="3.28374">
        <ele>1043</ele>
        <time>2009-02-26T13:56:52.000Z</time>
      </trkpt>
      <trkpt lat="44.64405" lon="3.28379">
        <ele>1045</ele>
        <time>2009-02-26T13:57:00.000Z</time>
      </trkpt>
      <trkpt lat="44.64411" lon="3.28377">
        <ele>1047</ele>
        <time>2009-02-26T13:57:09.000Z</time>
      </trkpt>
      <trkpt lat="44.64417" lon="3.28376">
        <ele>1047</ele>
        <time>2009-02-26T13:57:18.000Z</time>
      </trkpt>
      <trkpt lat="44.64423" lon="3.28378">
        <ele>1050</ele>
        <time>2009-02-26T13:57:28.000Z</time>
      </trkpt>
      <trkpt lat="44.64426" lon="3.28388">
        <ele>1050</ele>
        <time>2009-02-26T13:57:50.000Z</time>
      </trkpt>
      <trkpt lat="44.6443" lon="3.28391">
        <ele>1052</ele>
        <time>2009-02-26T13:58:00.000Z</time>
      </trkpt>
      <trkpt lat="44.64432" lon="3.28397">
        <ele>1052</ele>
        <time>2009-02-26T13:58:13.000Z</time>
      </trkpt>
      <trkpt lat="44.64435" lon="3.28403">
        <ele>1054</ele>
        <time>2009-02-26T13:58:26.000Z</time>
      </trkpt>
      <trkpt lat="44.6444" lon="3.28406">
        <ele>1058</ele>
        <time>2009-02-26T13:59:14.000Z</time>
      </trkpt>
      <trkpt lat="44.64437" lon="3.28411">
        <ele>1052</ele>
        <time>2009-02-26T14:00:54.000Z</time>
      </trkpt>
      <trkpt lat="44.64434" lon="3.28407">
        <ele>1065</ele>
        <time>2009-02-26T14:02:46.000Z</time>
      </trkpt>
      <trkpt lat="44.64439" lon="3.28411">
        <ele>1062</ele>
        <time>2009-02-26T14:02:58.000Z</time>
      </trkpt>
      <trkpt lat="44.64442" lon="3.28419">
        <ele>1058</ele>
        <time>2009-02-26T14:03:10.000Z</time>
      </trkpt>
      <trkpt lat="44.64442" lon="3.28427">
        <ele>1056</ele>
        <time>2009-02-26T14:03:23.000Z</time>
      </trkpt>
      <trkpt lat="44.64442" lon="3.28436">
        <ele>1055</ele>
        <time>2009-02-26T14:03:47.000Z</time>
      </trkpt>
      <trkpt lat="44.64443" lon="3.28443">
        <ele>1055</ele>
        <time>2009-02-26T14:03:56.000Z</time>
      </trkpt>
      <trkpt lat="44.64447" lon="3.28448">
        <ele>1056</ele>
        <time>2009-02-26T14:04:10.000Z</time>
      </trkpt>
      <trkpt lat="44.64449" lon="3.28457">
        <ele>1056</ele>
        <time>2009-02-26T14:04:26.000Z</time>
      </trkpt>
      <trkpt lat="44.64453" lon="3.28461">
        <ele>1057</ele>
        <time>2009-02-26T14:04:38.000Z</time>
      </trkpt>
      <trkpt lat="44.64457" lon="3.28466">
        <ele>1057</ele>
        <time>2009-02-26T14:04:47.000Z</time>
      </trkpt>
      <trkpt lat="44.64465" lon="3.2847">
        <ele>1059</ele>
        <time>2009-02-26T14:05:07.000Z</time>
      </trkpt>
      <trkpt lat="44.6447" lon="3.28472">
        <ele>1059</ele>
        <time>2009-02-26T14:05:17.000Z</time>
      </trkpt>
      <trkpt lat="44.6448" lon="3.28476">
        <ele>1062</ele>
        <time>2009-02-26T14:05:33.000Z</time>
      </trkpt>
      <trkpt lat="44.64494" lon="3.28473">
        <ele>1066</ele>
        <time>2009-02-26T14:05:57.000Z</time>
      </trkpt>
      <trkpt lat="44.645" lon="3.28476">
        <ele>1061</ele>
        <time>2009-02-26T14:07:43.000Z</time>
      </trkpt>
      <trkpt lat="44.64504" lon="3.2848">
        <ele>1060</ele>
        <time>2009-02-26T14:07:55.000Z</time>
      </trkpt>
      <trkpt lat="44.64508" lon="3.28486">
        <ele>1066</ele>
        <time>2009-02-26T14:08:08.000Z</time>
      </trkpt>
      <trkpt lat="44.64514" lon="3.28489">
        <ele>1070</ele>
        <time>2009-02-26T14:08:21.000Z</time>
      </trkpt>
      <trkpt lat="44.64524" lon="3.28496">
        <ele>1072</ele>
        <time>2009-02-26T14:08:38.000Z</time>
      </trkpt>
      <trkpt lat="44.64529" lon="3.28497">
        <ele>1073</ele>
        <time>2009-02-26T14:08:48.000Z</time>
      </trkpt>
      <trkpt lat="44.64537" lon="3.28499">
        <ele>1074</ele>
        <time>2009-02-26T14:09:04.000Z</time>
      </trkpt>
      <trkpt lat="44.64549" lon="3.28498">
        <ele>1078</ele>
        <time>2009-02-26T14:09:25.000Z</time>
      </trkpt>
      <trkpt lat="44.64553" lon="3.28494">
        <ele>1078</ele>
        <time>2009-02-26T14:09:35.000Z</time>
      </trkpt>
      <trkpt lat="44.64558" lon="3.2849">
        <ele>1078</ele>
        <time>2009-02-26T14:09:44.000Z</time>
      </trkpt>
      <trkpt lat="44.64566" lon="3.28474">
        <ele>1075</ele>
        <time>2009-02-26T14:10:08.000Z</time>
      </trkpt>
      <trkpt lat="44.6457" lon="3.28469">
        <ele>1074</ele>
        <time>2009-02-26T14:10:16.000Z</time>
      </trkpt>
      <trkpt lat="44.64573" lon="3.28463">
        <ele>1075</ele>
        <time>2009-02-26T14:10:24.000Z</time>
      </trkpt>
      <trkpt lat="44.64576" lon="3.28457">
        <ele>1078</ele>
        <time>2009-02-26T14:10:39.000Z</time>
      </trkpt>
      <trkpt lat="44.64579" lon="3.2845">
        <ele>1078</ele>
        <time>2009-02-26T14:10:49.000Z</time>
      </trkpt>
      <trkpt lat="44.64581" lon="3.28442">
        <ele>1077</ele>
        <time>2009-02-26T14:10:56.000Z</time>
      </trkpt>
      <trkpt lat="44.64584" lon="3.28432">
        <ele>1077</ele>
        <time>2009-02-26T14:11:09.000Z</time>
      </trkpt>
      <trkpt lat="44.64593" lon="3.28429">
        <ele>1080</ele>
        <time>2009-02-26T14:12:02.000Z</time>
      </trkpt>
      <trkpt lat="44.64596" lon="3.28428">
        <ele>1084</ele>
        <time>2009-02-26T14:13:22.000Z</time>
      </trkpt>
      <trkpt lat="44.64597" lon="3.2842">
        <ele>1080</ele>
        <time>2009-02-26T14:14:07.000Z</time>
      </trkpt>
      <trkpt lat="44.64599" lon="3.28419">
        <ele>1083</ele>
        <time>2009-02-26T14:15:15.000Z</time>
      </trkpt>
      <trkpt lat="44.64602" lon="3.28419">
        <ele>1077</ele>
        <time>2009-02-26T14:18:11.000Z</time>
      </trkpt>
      <trkpt lat="44.64614" lon="3.28435">
        <ele>1082</ele>
        <time>2009-02-26T14:19:07.000Z</time>
      </trkpt>
      <trkpt lat="44.64621" lon="3.28442">
        <ele>1089</ele>
        <time>2009-02-26T14:19:39.000Z</time>
      </trkpt>
      <trkpt lat="44.64626" lon="3.28447">
        <ele>1090</ele>
        <time>2009-02-26T14:19:49.000Z</time>
      </trkpt>
      <trkpt lat="44.64631" lon="3.2845">
        <ele>1093</ele>
        <time>2009-02-26T14:20:01.000Z</time>
      </trkpt>
      <trkpt lat="44.64635" lon="3.28454">
        <ele>1095</ele>
        <time>2009-02-26T14:20:12.000Z</time>
      </trkpt>
      <trkpt lat="44.64641" lon="3.28452">
        <ele>1095</ele>
        <time>2009-02-26T14:20:23.000Z</time>
      </trkpt>
      <trkpt lat="44.64646" lon="3.28451">
        <ele>1096</ele>
        <time>2009-02-26T14:20:34.000Z</time>
      </trkpt>
      <trkpt lat="44.64651" lon="3.28458">
        <ele>1094</ele>
        <time>2009-02-26T14:21:32.000Z</time>
      </trkpt>
      <trkpt lat="44.64657" lon="3.28466">
        <ele>1095</ele>
        <time>2009-02-26T14:21:46.000Z</time>
      </trkpt>
      <trkpt lat="44.64669" lon="3.28474">
        <ele>1097</ele>
        <time>2009-02-26T14:22:07.000Z</time>
      </trkpt>
      <trkpt lat="44.64671" lon="3.28483">
        <ele>1100</ele>
        <time>2009-02-26T14:22:21.000Z</time>
      </trkpt>
      <trkpt lat="44.64677" lon="3.28491">
        <ele>1102</ele>
        <time>2009-02-26T14:22:34.000Z</time>
      </trkpt>
      <trkpt lat="44.64677" lon="3.28488">
        <ele>1127</ele>
        <time>2009-02-26T14:24:31.000Z</time>
      </trkpt>
      <trkpt lat="44.64684" lon="3.2849">
        <ele>1106</ele>
        <time>2009-02-26T14:25:36.000Z</time>
      </trkpt>
      <trkpt lat="44.64689" lon="3.285">
        <ele>1108</ele>
        <time>2009-02-26T14:27:33.000Z</time>
      </trkpt>
      <trkpt lat="44.64687" lon="3.28491">
        <ele>1099</ele>
        <time>2009-02-26T14:28:26.000Z</time>
      </trkpt>
      <trkpt lat="44.64686" lon="3.28491">
        <ele>1105</ele>
        <time>2009-02-26T14:28:59.000Z</time>
      </trkpt>
      <trkpt lat="44.64687" lon="3.28499">
        <ele>1110</ele>
        <time>2009-02-26T14:29:21.000Z</time>
      </trkpt>
      <trkpt lat="44.6469" lon="3.28506">
        <ele>1110</ele>
        <time>2009-02-26T14:29:29.000Z</time>
      </trkpt>
      <trkpt lat="44.64692" lon="3.28514">
        <ele>1110</ele>
        <time>2009-02-26T14:29:39.000Z</time>
      </trkpt>
      <trkpt lat="44.64694" lon="3.28525">
        <ele>1111</ele>
        <time>2009-02-26T14:29:59.000Z</time>
      </trkpt>
      <trkpt lat="44.64699" lon="3.28535">
        <ele>1111</ele>
        <time>2009-02-26T14:30:13.000Z</time>
      </trkpt>
      <trkpt lat="44.64704" lon="3.28536">
        <ele>1113</ele>
        <time>2009-02-26T14:30:23.000Z</time>
      </trkpt>
      <trkpt lat="44.64709" lon="3.28526">
        <ele>1115</ele>
        <time>2009-02-26T14:30:36.000Z</time>
      </trkpt>
      <trkpt lat="44.64713" lon="3.2852">
        <ele>1115</ele>
        <time>2009-02-26T14:30:43.000Z</time>
      </trkpt>
      <trkpt lat="44.64718" lon="3.28506">
        <ele>1115</ele>
        <time>2009-02-26T14:30:55.000Z</time>
      </trkpt>
      <trkpt lat="44.6472" lon="3.28498">
        <ele>1116</ele>
        <time>2009-02-26T14:31:03.000Z</time>
      </trkpt>
      <trkpt lat="44.64722" lon="3.28491">
        <ele>1116</ele>
        <time>2009-02-26T14:31:10.000Z</time>
      </trkpt>
      <trkpt lat="44.64728" lon="3.2849">
        <ele>1115</ele>
        <time>2009-02-26T14:31:24.000Z</time>
      </trkpt>
      <trkpt lat="44.64734" lon="3.28494">
        <ele>1109</ele>
        <time>2009-02-26T14:32:39.000Z</time>
      </trkpt>
      <trkpt lat="44.64737" lon="3.28499">
        <ele>1110</ele>
        <time>2009-02-26T14:32:51.000Z</time>
      </trkpt>
      <trkpt lat="44.64745" lon="3.28511">
        <ele>1114</ele>
        <time>2009-02-26T14:33:39.000Z</time>
      </trkpt>
      <trkpt lat="44.64749" lon="3.28529">
        <ele>1119</ele>
        <time>2009-02-26T14:33:59.000Z</time>
      </trkpt>
      <trkpt lat="44.64751" lon="3.28536">
        <ele>1121</ele>
        <time>2009-02-26T14:34:07.000Z</time>
      </trkpt>
      <trkpt lat="44.64752" lon="3.28548">
        <ele>1123</ele>
        <time>2009-02-26T14:34:20.000Z</time>
      </trkpt>
      <trkpt lat="44.64752" lon="3.28556">
        <ele>1123</ele>
        <time>2009-02-26T14:34:28.000Z</time>
      </trkpt>
      <trkpt lat="44.64754" lon="3.28571">
        <ele>1125</ele>
        <time>2009-02-26T14:34:46.000Z</time>
      </trkpt>
      <trkpt lat="44.64756" lon="3.28578">
        <ele>1125</ele>
        <time>2009-02-26T14:35:19.000Z</time>
      </trkpt>
      <trkpt lat="44.64756" lon="3.28601">
        <ele>1128</ele>
        <time>2009-02-26T14:35:58.000Z</time>
      </trkpt>
      <trkpt lat="44.64751" lon="3.28607">
        <ele>1135</ele>
        <time>2009-02-26T14:36:33.000Z</time>
      </trkpt>
      <trkpt lat="44.64758" lon="3.28597">
        <ele>1131</ele>
        <time>2009-02-26T14:37:39.000Z</time>
      </trkpt>
      <trkpt lat="44.64748" lon="3.28598">
        <ele>1140</ele>
        <time>2009-02-26T14:37:53.000Z</time>
      </trkpt>
      <trkpt lat="44.64751" lon="3.28604">
        <ele>1132</ele>
        <time>2009-02-26T14:39:13.000Z</time>
      </trkpt>
      <trkpt lat="44.64759" lon="3.28609">
        <ele>1133</ele>
        <time>2009-02-26T14:39:35.000Z</time>
      </trkpt>
      <trkpt lat="44.64765" lon="3.2861">
        <ele>1134</ele>
        <time>2009-02-26T14:39:43.000Z</time>
      </trkpt>
      <trkpt lat="44.64773" lon="3.28603">
        <ele>1135</ele>
        <time>2009-02-26T14:39:56.000Z</time>
      </trkpt>
      <trkpt lat="44.64784" lon="3.2859">
        <ele>1139</ele>
        <time>2009-02-26T14:40:18.000Z</time>
      </trkpt>
      <trkpt lat="44.64801" lon="3.28576">
        <ele>1140</ele>
        <time>2009-02-26T14:40:45.000Z</time>
      </trkpt>
      <trkpt lat="44.64816" lon="3.28564">
        <ele>1141</ele>
        <time>2009-02-26T14:41:08.000Z</time>
      </trkpt>
      <trkpt lat="44.64824" lon="3.28559">
        <ele>1142</ele>
        <time>2009-02-26T14:41:22.000Z</time>
      </trkpt>
      <trkpt lat="44.6483" lon="3.28557">
        <ele>1143</ele>
        <time>2009-02-26T14:41:30.000Z</time>
      </trkpt>
      <trkpt lat="44.64832" lon="3.2856">
        <ele>1145</ele>
        <time>2009-02-26T14:42:04.000Z</time>
      </trkpt>
      <trkpt lat="44.64829" lon="3.28565">
        <ele>1146</ele>
        <time>2009-02-26T14:42:19.000Z</time>
      </trkpt>
      <trkpt lat="44.6483" lon="3.28577">
        <ele>1145</ele>
        <time>2009-02-26T14:42:33.000Z</time>
      </trkpt>
      <trkpt lat="44.64824" lon="3.2858">
        <ele>1145</ele>
        <time>2009-02-26T14:42:42.000Z</time>
      </trkpt>
      <trkpt lat="44.6482" lon="3.28586">
        <ele>1146</ele>
        <time>2009-02-26T14:42:51.000Z</time>
      </trkpt>
      <trkpt lat="44.64816" lon="3.28592">
        <ele>1147</ele>
        <time>2009-02-26T14:43:22.000Z</time>
      </trkpt>
      <trkpt lat="44.64808" lon="3.28626">
        <ele>1152</ele>
        <time>2009-02-26T14:44:07.000Z</time>
      </trkpt>
      <trkpt lat="44.64806" lon="3.28655">
        <ele>1150</ele>
        <time>2009-02-26T14:44:32.000Z</time>
      </trkpt>
      <trkpt lat="44.64806" lon="3.28663">
        <ele>1148</ele>
        <time>2009-02-26T14:45:17.000Z</time>
      </trkpt>
      <trkpt lat="44.64812" lon="3.28677">
        <ele>1150</ele>
        <time>2009-02-26T14:45:43.000Z</time>
      </trkpt>
      <trkpt lat="44.64813" lon="3.28693">
        <ele>1151</ele>
        <time>2009-02-26T14:46:01.000Z</time>
      </trkpt>
      <trkpt lat="44.64816" lon="3.287">
        <ele>1153</ele>
        <time>2009-02-26T14:46:10.000Z</time>
      </trkpt>
      <trkpt lat="44.64819" lon="3.28729">
        <ele>1161</ele>
        <time>2009-02-26T14:47:30.000Z</time>
      </trkpt>
      <trkpt lat="44.64828" lon="3.28725">
        <ele>1165</ele>
        <time>2009-02-26T14:48:08.000Z</time>
      </trkpt>
      <trkpt lat="44.64837" lon="3.28717">
        <ele>1173</ele>
        <time>2009-02-26T14:48:54.000Z</time>
      </trkpt>
      <trkpt lat="44.64841" lon="3.28713">
        <ele>1179</ele>
        <time>2009-02-26T14:49:05.000Z</time>
      </trkpt>
      <trkpt lat="44.64842" lon="3.28716">
        <ele>1181</ele>
        <time>2009-02-26T14:49:33.000Z</time>
      </trkpt>
      <trkpt lat="44.64838" lon="3.28711">
        <ele>1184</ele>
        <time>2009-02-26T14:50:39.000Z</time>
      </trkpt>
      <trkpt lat="44.64844" lon="3.28711">
        <ele>1187</ele>
        <time>2009-02-26T14:53:27.000Z</time>
      </trkpt>
      <trkpt lat="44.64843" lon="3.28705">
        <ele>1179</ele>
        <time>2009-02-26T14:54:36.000Z</time>
      </trkpt>
      <trkpt lat="44.6484" lon="3.28708">
        <ele>1182</ele>
        <time>2009-02-26T14:54:55.000Z</time>
      </trkpt>
      <trkpt lat="44.64844" lon="3.28713">
        <ele>1183</ele>
        <time>2009-02-26T14:55:31.000Z</time>
      </trkpt>
      <trkpt lat="44.64841" lon="3.28716">
        <ele>1181</ele>
        <time>2009-02-26T14:56:16.000Z</time>
      </trkpt>
      <trkpt lat="44.64843" lon="3.28714">
        <ele>1183</ele>
        <time>2009-02-26T14:57:14.000Z</time>
      </trkpt>
      <trkpt lat="44.6484" lon="3.28717">
        <ele>1181</ele>
        <time>2009-02-26T14:58:05.000Z</time>
      </trkpt>
      <trkpt lat="44.64836" lon="3.28719">
        <ele>1177</ele>
        <time>2009-02-26T14:58:38.000Z</time>
      </trkpt>
      <trkpt lat="44.64827" lon="3.28723">
        <ele>1168</ele>
        <time>2009-02-26T14:59:03.000Z</time>
      </trkpt>
      <trkpt lat="44.64819" lon="3.28723">
        <ele>1161</ele>
        <time>2009-02-26T14:59:44.000Z</time>
      </trkpt>
      <trkpt lat="44.64812" lon="3.28695">
        <ele>1157</ele>
        <time>2009-02-26T15:00:15.000Z</time>
      </trkpt>
      <trkpt lat="44.6481" lon="3.28686">
        <ele>1158</ele>
        <time>2009-02-26T15:00:24.000Z</time>
      </trkpt>
      <trkpt lat="44.6481" lon="3.28677">
        <ele>1159</ele>
        <time>2009-02-26T15:00:32.000Z</time>
      </trkpt>
      <trkpt lat="44.64805" lon="3.28658">
        <ele>1157</ele>
        <time>2009-02-26T15:00:49.000Z</time>
      </trkpt>
      <trkpt lat="44.64805" lon="3.28644">
        <ele>1156</ele>
        <time>2009-02-26T15:01:03.000Z</time>
      </trkpt>
      <trkpt lat="44.64808" lon="3.28636">
        <ele>1156</ele>
        <time>2009-02-26T15:01:10.000Z</time>
      </trkpt>
      <trkpt lat="44.64808" lon="3.28627">
        <ele>1155</ele>
        <time>2009-02-26T15:01:16.000Z</time>
      </trkpt>
      <trkpt lat="44.6481" lon="3.28619">
        <ele>1155</ele>
        <time>2009-02-26T15:01:22.000Z</time>
      </trkpt>
      <trkpt lat="44.64826" lon="3.2858">
        <ele>1150</ele>
        <time>2009-02-26T15:01:47.000Z</time>
      </trkpt>
      <trkpt lat="44.64838" lon="3.28582">
        <ele>1152</ele>
        <time>2009-02-26T15:01:59.000Z</time>
      </trkpt>
      <trkpt lat="44.64835" lon="3.28575">
        <ele>1151</ele>
        <time>2009-02-26T15:02:09.000Z</time>
      </trkpt>
      <trkpt lat="44.64832" lon="3.28569">
        <ele>1151</ele>
        <time>2009-02-26T15:02:15.000Z</time>
      </trkpt>
      <trkpt lat="44.64825" lon="3.2856">
        <ele>1150</ele>
        <time>2009-02-26T15:02:34.000Z</time>
      </trkpt>
      <trkpt lat="44.6482" lon="3.28561">
        <ele>1147</ele>
        <time>2009-02-26T15:02:46.000Z</time>
      </trkpt>
      <trkpt lat="44.64802" lon="3.2858">
        <ele>1144</ele>
        <time>2009-02-26T15:03:12.000Z</time>
      </trkpt>
      <trkpt lat="44.64796" lon="3.28589">
        <ele>1144</ele>
        <time>2009-02-26T15:03:21.000Z</time>
      </trkpt>
      <trkpt lat="44.64792" lon="3.28596">
        <ele>1144</ele>
        <time>2009-02-26T15:03:27.000Z</time>
      </trkpt>
      <trkpt lat="44.64788" lon="3.28601">
        <ele>1144</ele>
        <time>2009-02-26T15:03:53.000Z</time>
      </trkpt>
      <trkpt lat="44.6478" lon="3.28618">
        <ele>1142</ele>
        <time>2009-02-26T15:04:09.000Z</time>
      </trkpt>
      <trkpt lat="44.64775" lon="3.28628">
        <ele>1140</ele>
        <time>2009-02-26T15:04:20.000Z</time>
      </trkpt>
      <trkpt lat="44.64771" lon="3.28639">
        <ele>1140</ele>
        <time>2009-02-26T15:04:29.000Z</time>
      </trkpt>
      <trkpt lat="44.64766" lon="3.28669">
        <ele>1137</ele>
        <time>2009-02-26T15:04:52.000Z</time>
      </trkpt>
      <trkpt lat="44.64758" lon="3.28682">
        <ele>1133</ele>
        <time>2009-02-26T15:05:07.000Z</time>
      </trkpt>
      <trkpt lat="44.64753" lon="3.28684">
        <ele>1132</ele>
        <time>2009-02-26T15:05:15.000Z</time>
      </trkpt>
      <trkpt lat="44.64747" lon="3.28684">
        <ele>1132</ele>
        <time>2009-02-26T15:05:24.000Z</time>
      </trkpt>
      <trkpt lat="44.64741" lon="3.28689">
        <ele>1133</ele>
        <time>2009-02-26T15:05:50.000Z</time>
      </trkpt>
      <trkpt lat="44.64722" lon="3.28687">
        <ele>1132</ele>
        <time>2009-02-26T15:06:21.000Z</time>
      </trkpt>
      <trkpt lat="44.64701" lon="3.28682">
        <ele>1124</ele>
        <time>2009-02-26T15:07:11.000Z</time>
      </trkpt>
      <trkpt lat="44.64695" lon="3.28678">
        <ele>1122</ele>
        <time>2009-02-26T15:07:21.000Z</time>
      </trkpt>
      <trkpt lat="44.64688" lon="3.28678">
        <ele>1122</ele>
        <time>2009-02-26T15:07:31.000Z</time>
      </trkpt>
      <trkpt lat="44.64673" lon="3.28687">
        <ele>1122</ele>
        <time>2009-02-26T15:08:07.000Z</time>
      </trkpt>
      <trkpt lat="44.64671" lon="3.28684">
        <ele>1126</ele>
        <time>2009-02-26T15:08:22.000Z</time>
      </trkpt>
      <trkpt lat="44.64666" lon="3.28701">
        <ele>1125</ele>
        <time>2009-02-26T15:08:32.000Z</time>
      </trkpt>
      <trkpt lat="44.6466" lon="3.28712">
        <ele>1124</ele>
        <time>2009-02-26T15:08:41.000Z</time>
      </trkpt>
      <trkpt lat="44.64646" lon="3.28729">
        <ele>1116</ele>
        <time>2009-02-26T15:09:05.000Z</time>
      </trkpt>
      <trkpt lat="44.64621" lon="3.28752">
        <ele>1109</ele>
        <time>2009-02-26T15:09:41.000Z</time>
      </trkpt>
      <trkpt lat="44.64617" lon="3.28767">
        <ele>1105</ele>
        <time>2009-02-26T15:09:55.000Z</time>
      </trkpt>
      <trkpt lat="44.64614" lon="3.28798">
        <ele>1102</ele>
        <time>2009-02-26T15:10:18.000Z</time>
      </trkpt>
      <trkpt lat="44.64612" lon="3.28852">
        <ele>1097</ele>
        <time>2009-02-26T15:10:58.000Z</time>
      </trkpt>
      <trkpt lat="44.64612" lon="3.28893">
        <ele>1092</ele>
        <time>2009-02-26T15:11:34.000Z</time>
      </trkpt>
      <trkpt lat="44.64608" lon="3.28918">
        <ele>1090</ele>
        <time>2009-02-26T15:11:52.000Z</time>
      </trkpt>
      <trkpt lat="44.64606" lon="3.28926">
        <ele>1090</ele>
        <time>2009-02-26T15:12:00.000Z</time>
      </trkpt>
      <trkpt lat="44.64601" lon="3.28953">
        <ele>1087</ele>
        <time>2009-02-26T15:12:21.000Z</time>
      </trkpt>
      <trkpt lat="44.64594" lon="3.28968">
        <ele>1087</ele>
        <time>2009-02-26T15:12:33.000Z</time>
      </trkpt>
      <trkpt lat="44.64585" lon="3.28986">
        <ele>1087</ele>
        <time>2009-02-26T15:12:53.000Z</time>
      </trkpt>
      <trkpt lat="44.64578" lon="3.28992">
        <ele>1087</ele>
        <time>2009-02-26T15:13:09.000Z</time>
      </trkpt>
      <trkpt lat="44.6458" lon="3.28996">
        <ele>1087</ele>
        <time>2009-02-26T15:13:20.000Z</time>
      </trkpt>
      <trkpt lat="44.64586" lon="3.28996">
        <ele>1088</ele>
        <time>2009-02-26T15:13:31.000Z</time>
      </trkpt>
      <trkpt lat="44.64594" lon="3.29002">
        <ele>1089</ele>
        <time>2009-02-26T15:14:03.000Z</time>
      </trkpt>
      <trkpt lat="44.646" lon="3.29">
        <ele>1090</ele>
        <time>2009-02-26T15:14:12.000Z</time>
      </trkpt>
      <trkpt lat="44.64593" lon="3.29004">
        <ele>1084</ele>
        <time>2009-02-26T15:18:16.000Z</time>
      </trkpt>
      <trkpt lat="44.64588" lon="3.29">
        <ele>1084</ele>
        <time>2009-02-26T15:18:48.000Z</time>
      </trkpt>
      <trkpt lat="44.64578" lon="3.29">
        <ele>1084</ele>
        <time>2009-02-26T15:19:06.000Z</time>
      </trkpt>
      <trkpt lat="44.64569" lon="3.29">
        <ele>1084</ele>
        <time>2009-02-26T15:19:17.000Z</time>
      </trkpt>
      <trkpt lat="44.64558" lon="3.29019">
        <ele>1082</ele>
        <time>2009-02-26T15:19:53.000Z</time>
      </trkpt>
      <trkpt lat="44.64556" lon="3.29027">
        <ele>1081</ele>
        <time>2009-02-26T15:20:00.000Z</time>
      </trkpt>
      <trkpt lat="44.64555" lon="3.29035">
        <ele>1081</ele>
        <time>2009-02-26T15:20:07.000Z</time>
      </trkpt>
      <trkpt lat="44.64552" lon="3.29042">
        <ele>1080</ele>
        <time>2009-02-26T15:20:14.000Z</time>
      </trkpt>
      <trkpt lat="44.64548" lon="3.29054">
        <ele>1079</ele>
        <time>2009-02-26T15:20:23.000Z</time>
      </trkpt>
      <trkpt lat="44.64543" lon="3.29059">
        <ele>1078</ele>
        <time>2009-02-26T15:20:29.000Z</time>
      </trkpt>
      <trkpt lat="44.64537" lon="3.29063">
        <ele>1078</ele>
        <time>2009-02-26T15:20:37.000Z</time>
      </trkpt>
      <trkpt lat="44.64533" lon="3.29068">
        <ele>1077</ele>
        <time>2009-02-26T15:20:53.000Z</time>
      </trkpt>
      <trkpt lat="44.64495" lon="3.29104">
        <ele>1076</ele>
        <time>2009-02-26T15:21:40.000Z</time>
      </trkpt>
      <trkpt lat="44.64494" lon="3.29105">
        <ele>1076</ele>
        <time>2009-02-26T15:21:41.000Z</time>
      </trkpt>
      <trkpt lat="44.64486" lon="3.29114">
        <ele>1074</ele>
        <time>2009-02-26T15:21:52.000Z</time>
      </trkpt>
      <trkpt lat="44.64464" lon="3.29141">
        <ele>1072</ele>
        <time>2009-02-26T15:22:22.000Z</time>
      </trkpt>
      <trkpt lat="44.64458" lon="3.29142">
        <ele>1071</ele>
        <time>2009-02-26T15:22:28.000Z</time>
      </trkpt>
      <trkpt lat="44.64449" lon="3.29133">
        <ele>1072</ele>
        <time>2009-02-26T15:22:40.000Z</time>
      </trkpt>
      <trkpt lat="44.64443" lon="3.29121">
        <ele>1073</ele>
        <time>2009-02-26T15:22:49.000Z</time>
      </trkpt>
      <trkpt lat="44.64429" lon="3.29095">
        <ele>1072</ele>
        <time>2009-02-26T15:23:14.000Z</time>
      </trkpt>
      <trkpt lat="44.64423" lon="3.29092">
        <ele>1072</ele>
        <time>2009-02-26T15:23:20.000Z</time>
      </trkpt>
      <trkpt lat="44.64411" lon="3.2909">
        <ele>1072</ele>
        <time>2009-02-26T15:23:34.000Z</time>
      </trkpt>
      <trkpt lat="44.64395" lon="3.29094">
        <ele>1071</ele>
        <time>2009-02-26T15:23:50.000Z</time>
      </trkpt>
      <trkpt lat="44.64383" lon="3.29107">
        <ele>1068</ele>
        <time>2009-02-26T15:24:05.000Z</time>
      </trkpt>
      <trkpt lat="44.64374" lon="3.29097">
        <ele>1065</ele>
        <time>2009-02-26T15:24:17.000Z</time>
      </trkpt>
      <trkpt lat="44.64346" lon="3.29052">
        <ele>1053</ele>
        <time>2009-02-26T15:24:56.000Z</time>
      </trkpt>
      <trkpt lat="44.64343" lon="3.29044">
        <ele>1051</ele>
        <time>2009-02-26T15:25:01.000Z</time>
      </trkpt>
      <trkpt lat="44.64338" lon="3.29039">
        <ele>1051</ele>
        <time>2009-02-26T15:25:07.000Z</time>
      </trkpt>
      <trkpt lat="44.64326" lon="3.29042">
        <ele>1049</ele>
        <time>2009-02-26T15:25:21.000Z</time>
      </trkpt>
      <trkpt lat="44.6432" lon="3.29044">
        <ele>1047</ele>
        <time>2009-02-26T15:25:27.000Z</time>
      </trkpt>
      <trkpt lat="44.64309" lon="3.29053">
        <ele>1049</ele>
        <time>2009-02-26T15:25:39.000Z</time>
      </trkpt>
      <trkpt lat="44.64307" lon="3.29065">
        <ele>1050</ele>
        <time>2009-02-26T15:25:48.000Z</time>
      </trkpt>
      <trkpt lat="44.64304" lon="3.29072">
        <ele>1051</ele>
        <time>2009-02-26T15:25:54.000Z</time>
      </trkpt>
      <trkpt lat="44.64299" lon="3.29079">
        <ele>1053</ele>
        <time>2009-02-26T15:26:00.000Z</time>
      </trkpt>
      <trkpt lat="44.64293" lon="3.29087">
        <ele>1053</ele>
        <time>2009-02-26T15:26:09.000Z</time>
      </trkpt>
      <trkpt lat="44.64282" lon="3.29095">
        <ele>1053</ele>
        <time>2009-02-26T15:26:21.000Z</time>
      </trkpt>
      <trkpt lat="44.64265" lon="3.29092">
        <ele>1052</ele>
        <time>2009-02-26T15:26:37.000Z</time>
      </trkpt>
      <trkpt lat="44.64247" lon="3.29087">
        <ele>1053</ele>
        <time>2009-02-26T15:26:55.000Z</time>
      </trkpt>
      <trkpt lat="44.64223" lon="3.29083">
        <ele>1053</ele>
        <time>2009-02-26T15:27:14.000Z</time>
      </trkpt>
      <trkpt lat="44.64191" lon="3.29096">
        <ele>1052</ele>
        <time>2009-02-26T15:27:49.000Z</time>
      </trkpt>
      <trkpt lat="44.64146" lon="3.29092">
        <ele>1055</ele>
        <time>2009-02-26T15:28:30.000Z</time>
      </trkpt>
      <trkpt lat="44.64145" lon="3.29092">
        <ele>1055</ele>
        <time>2009-02-26T15:28:31.000Z</time>
      </trkpt>
      <trkpt lat="44.64141" lon="3.29089">
        <ele>1055</ele>
        <time>2009-02-26T15:28:36.000Z</time>
      </trkpt>
      <trkpt lat="44.64137" lon="3.29084">
        <ele>1055</ele>
        <time>2009-02-26T15:28:42.000Z</time>
      </trkpt>
      <trkpt lat="44.64132" lon="3.29075">
        <ele>1053</ele>
        <time>2009-02-26T15:28:51.000Z</time>
      </trkpt>
      <trkpt lat="44.64124" lon="3.2905">
        <ele>1048</ele>
        <time>2009-02-26T15:29:08.000Z</time>
      </trkpt>
      <trkpt lat="44.64123" lon="3.29029">
        <ele>1044</ele>
        <time>2009-02-26T15:29:23.000Z</time>
      </trkpt>
      <trkpt lat="44.64127" lon="3.29023">
        <ele>1044</ele>
        <time>2009-02-26T15:29:29.000Z</time>
      </trkpt>
      <trkpt lat="44.64141" lon="3.29019">
        <ele>1046</ele>
        <time>2009-02-26T15:29:42.000Z</time>
      </trkpt>
      <trkpt lat="44.64149" lon="3.29018">
        <ele>1044</ele>
        <time>2009-02-26T15:29:58.000Z</time>
      </trkpt>
      <trkpt lat="44.64149" lon="3.2901">
        <ele>1043</ele>
        <time>2009-02-26T15:30:20.000Z</time>
      </trkpt>
      <trkpt lat="44.64147" lon="3.28999">
        <ele>1040</ele>
        <time>2009-02-26T15:30:42.000Z</time>
      </trkpt>
      <trkpt lat="44.64145" lon="3.28988">
        <ele>1036</ele>
        <time>2009-02-26T15:30:54.000Z</time>
      </trkpt>
      <trkpt lat="44.64143" lon="3.28975">
        <ele>1036</ele>
        <time>2009-02-26T15:31:04.000Z</time>
      </trkpt>
      <trkpt lat="44.64141" lon="3.28966">
        <ele>1035</ele>
        <time>2009-02-26T15:31:10.000Z</time>
      </trkpt>
      <trkpt lat="44.64138" lon="3.2895">
        <ele>1033</ele>
        <time>2009-02-26T15:31:22.000Z</time>
      </trkpt>
      <trkpt lat="44.64137" lon="3.28939">
        <ele>1034</ele>
        <time>2009-02-26T15:31:31.000Z</time>
      </trkpt>
      <trkpt lat="44.6413" lon="3.28925">
        <ele>1037</ele>
        <time>2009-02-26T15:31:43.000Z</time>
      </trkpt>
      <trkpt lat="44.64122" lon="3.28898">
        <ele>1031</ele>
        <time>2009-02-26T15:32:01.000Z</time>
      </trkpt>
      <trkpt lat="44.64123" lon="3.28886">
        <ele>1025</ele>
        <time>2009-02-26T15:32:12.000Z</time>
      </trkpt>
      <trkpt lat="44.64123" lon="3.2887">
        <ele>1020</ele>
        <time>2009-02-26T15:32:26.000Z</time>
      </trkpt>
      <trkpt lat="44.64125" lon="3.28854">
        <ele>1016</ele>
        <time>2009-02-26T15:32:51.000Z</time>
      </trkpt>
      <trkpt lat="44.64125" lon="3.28846">
        <ele>1013</ele>
        <time>2009-02-26T15:32:58.000Z</time>
      </trkpt>
      <trkpt lat="44.64125" lon="3.28839">
        <ele>1013</ele>
        <time>2009-02-26T15:33:16.000Z</time>
      </trkpt>
      <trkpt lat="44.64132" lon="3.28838">
        <ele>1019</ele>
        <time>2009-02-26T15:33:25.000Z</time>
      </trkpt>
      <trkpt lat="44.64145" lon="3.28838">
        <ele>1025</ele>
        <time>2009-02-26T15:33:41.000Z</time>
      </trkpt>
      <trkpt lat="44.6415" lon="3.28837">
        <ele>1028</ele>
        <time>2009-02-26T15:33:51.000Z</time>
      </trkpt>
      <trkpt lat="44.64157" lon="3.28835">
        <ele>1022</ele>
        <time>2009-02-26T15:34:06.000Z</time>
      </trkpt>
      <trkpt lat="44.64161" lon="3.28844">
        <ele>1015</ele>
        <time>2009-02-26T15:34:23.000Z</time>
      </trkpt>
      <trkpt lat="44.64159" lon="3.28838">
        <ele>1010</ele>
        <time>2009-02-26T15:34:42.000Z</time>
      </trkpt>
      <trkpt lat="44.64163" lon="3.28833">
        <ele>1009</ele>
        <time>2009-02-26T15:35:29.000Z</time>
      </trkpt>
      <trkpt lat="44.64169" lon="3.28831">
        <ele>1012</ele>
        <time>2009-02-26T15:35:48.000Z</time>
      </trkpt>
      <trkpt lat="44.6418" lon="3.28815">
        <ele>1008</ele>
        <time>2009-02-26T15:36:02.000Z</time>
      </trkpt>
      <trkpt lat="44.64181" lon="3.28803">
        <ele>1006</ele>
        <time>2009-02-26T15:36:09.000Z</time>
      </trkpt>
      <trkpt lat="44.64182" lon="3.28789">
        <ele>1005</ele>
        <time>2009-02-26T15:36:18.000Z</time>
      </trkpt>
      <trkpt lat="44.64188" lon="3.28745">
        <ele>1002</ele>
        <time>2009-02-26T15:36:46.000Z</time>
      </trkpt>
      <trkpt lat="44.64191" lon="3.28713">
        <ele>1002</ele>
        <time>2009-02-26T15:37:05.000Z</time>
      </trkpt>
      <trkpt lat="44.64182" lon="3.28677">
        <ele>997</ele>
        <time>2009-02-26T15:37:31.000Z</time>
      </trkpt>
      <trkpt lat="44.64174" lon="3.28646">
        <ele>994</ele>
        <time>2009-02-26T15:37:52.000Z</time>
      </trkpt>
      <trkpt lat="44.64169" lon="3.28624">
        <ele>993</ele>
        <time>2009-02-26T15:38:09.000Z</time>
      </trkpt>
      <trkpt lat="44.64171" lon="3.28604">
        <ele>991</ele>
        <time>2009-02-26T15:38:21.000Z</time>
      </trkpt>
      <trkpt lat="44.64173" lon="3.28595">
        <ele>991</ele>
        <time>2009-02-26T15:38:27.000Z</time>
      </trkpt>
      <trkpt lat="44.64175" lon="3.28588">
        <ele>991</ele>
        <time>2009-02-26T15:38:33.000Z</time>
      </trkpt>
      <trkpt lat="44.64177" lon="3.2858">
        <ele>995</ele>
        <time>2009-02-26T15:38:57.000Z</time>
      </trkpt>
      <trkpt lat="44.6418" lon="3.28568">
        <ele>993</ele>
        <time>2009-02-26T15:39:06.000Z</time>
      </trkpt>
      <trkpt lat="44.64183" lon="3.28558">
        <ele>991</ele>
        <time>2009-02-26T15:39:41.000Z</time>
      </trkpt>
      <trkpt lat="44.64186" lon="3.28554">
        <ele>994</ele>
        <time>2009-02-26T15:40:43.000Z</time>
      </trkpt>
      <trkpt lat="44.64182" lon="3.28549">
        <ele>998</ele>
        <time>2009-02-26T15:42:42.000Z</time>
      </trkpt>
    </trkseg>
  </trk>
</gpx>